createdAt,value
2019-05-16T00:00:58.841Z,8.41
2019-05-16T00:03:28.189Z,8.09
2019-05-16T00:05:58.461Z,7.39
2019-05-16T00:08:28.603Z,7.41
2019-05-16T00:10:58.272Z,8.15
2019-05-16T00:13:28.129Z,7.88
2019-05-16T00:15:58.811Z,7.77
2019-05-16T00:18:28.407Z,8.00
2019-05-16T00:20:58.462Z,7.73
2019-05-16T00:23:28.937Z,7.81
2019-05-16T00:25:58.578Z,8.10
2019-05-16T00:28:28.625Z,7.76
2019-05-16T00:30:59.230Z,7.47
2019-05-16T00:33:28.703Z,7.38
2019-05-16T00:36:03.437Z,8.18
2019-05-16T00:38:28.217Z,8.25
2019-05-16T00:40:59.047Z,8.02
2019-05-16T00:43:28.881Z,8.02
2019-05-16T00:45:59.015Z,8.08
2019-05-16T00:48:28.852Z,8.08
2019-05-16T00:50:58.432Z,7.68
2019-05-16T00:53:28.843Z,7.48
2019-05-16T00:55:58.762Z,7.45
2019-05-16T00:58:28.952Z,7.90
2019-05-16T01:00:59.271Z,7.74
2019-05-16T01:03:29.073Z,7.60
2019-05-16T01:05:58.299Z,7.83
2019-05-16T01:08:28.256Z,7.78
2019-05-16T01:10:58.716Z,7.84
2019-05-16T01:13:29.077Z,7.91
2019-05-16T01:15:58.140Z,7.68
2019-05-16T01:18:28.700Z,6.70
2019-05-16T01:20:58.582Z,6.84
2019-05-16T01:23:28.278Z,7.03
2019-05-16T01:25:58.837Z,7.17
2019-05-16T01:28:28.397Z,7.16
2019-05-16T01:30:58.028Z,6.91
2019-05-16T01:33:28.146Z,6.84
2019-05-16T01:35:58.552Z,7.42
2019-05-16T01:38:28.538Z,7.46
2019-05-16T01:40:58.277Z,7.41
2019-05-16T01:43:28.369Z,7.17
2019-05-16T01:45:57.868Z,7.52
2019-05-16T01:48:29.255Z,7.46
2019-05-16T01:50:58.416Z,7.52
2019-05-16T01:53:27.952Z,7.51
2019-05-16T01:55:58.014Z,7.45
2019-05-16T01:58:28.975Z,7.46
2019-05-16T02:01:05.906Z,7.34
2019-05-16T02:03:28.400Z,7.41
2019-05-16T02:05:58.498Z,6.80
2019-05-16T02:08:28.694Z,6.35
2019-05-16T02:10:58.334Z,6.33
2019-05-16T02:13:28.652Z,6.84
2019-05-16T02:15:59.361Z,6.75
2019-05-16T02:18:28.855Z,7.16
2019-05-16T02:20:58.666Z,7.16
2019-05-16T02:23:28.541Z,6.92
2019-05-16T02:25:57.981Z,6.64
2019-05-16T02:28:31.077Z,6.35
2019-05-16T02:31:00.954Z,6.71
2019-05-16T02:33:31.378Z,6.93
2019-05-16T02:36:01.678Z,6.91
2019-05-16T02:38:31.729Z,6.98
2019-05-16T02:41:03.288Z,7.09
2019-05-16T02:43:32.055Z,7.06
2019-05-16T02:46:01.478Z,7.01
2019-05-16T02:48:31.773Z,7.09
2019-05-16T02:51:01.807Z,7.06
2019-05-16T02:53:31.222Z,6.96
2019-05-16T02:56:01.366Z,7.15
2019-05-16T02:58:30.932Z,7.01
2019-05-16T03:01:01.955Z,6.58
2019-05-16T03:03:31.790Z,6.96
2019-05-16T03:06:02.158Z,7.13
2019-05-16T03:08:32.315Z,7.07
2019-05-16T03:11:01.596Z,6.93
2019-05-16T03:13:33.433Z,6.67
2019-05-16T03:16:04.340Z,6.78
2019-05-16T03:18:35.457Z,6.84
2019-05-16T03:21:06.980Z,6.88
2019-05-16T03:23:35.928Z,6.89
2019-05-16T03:26:04.919Z,6.72
2019-05-16T03:28:33.816Z,7.12
2019-05-16T03:31:05.243Z,6.75
2019-05-16T03:33:41.595Z,6.73
2019-05-16T03:36:05.054Z,6.78
2019-05-16T03:38:34.290Z,6.92
2019-05-16T03:41:03.309Z,6.87
2019-05-16T03:43:32.278Z,6.77
2019-05-16T03:46:02.594Z,6.75
2019-05-16T03:48:31.811Z,6.86
2019-05-16T03:51:01.016Z,6.70
2019-05-16T03:53:31.723Z,6.76
2019-05-16T03:56:01.870Z,6.73
2019-05-16T03:58:31.233Z,6.71
2019-05-16T04:01:02.318Z,6.71
2019-05-16T04:03:33.241Z,6.90
2019-05-16T04:06:02.957Z,6.79
2019-05-16T04:08:31.844Z,6.79
2019-05-16T04:11:01.515Z,6.73
2019-05-16T04:13:31.655Z,6.77
2019-05-16T04:16:01.599Z,6.80
2019-05-16T04:18:31.850Z,6.82
2019-05-16T04:21:01.505Z,5.92
2019-05-16T04:23:31.405Z,6.20
2019-05-16T04:26:01.072Z,6.63
2019-05-16T04:28:32.104Z,6.84
2019-05-16T04:31:02.130Z,6.65
2019-05-16T04:33:31.404Z,6.48
2019-05-16T04:36:01.243Z,6.50
2019-05-16T04:38:40.244Z,6.62
2019-05-16T04:41:01.569Z,6.61
2019-05-16T04:43:31.792Z,6.51
2019-05-16T04:46:01.602Z,6.73
2019-05-16T04:48:31.394Z,6.77
2019-05-16T04:51:01.448Z,6.83
2019-05-16T04:53:31.669Z,6.92
2019-05-16T04:56:01.679Z,6.31
2019-05-16T04:58:31.840Z,6.58
2019-05-16T05:01:01.693Z,6.70
2019-05-16T05:03:31.641Z,6.67
2019-05-16T05:06:01.466Z,6.81
2019-05-16T05:08:40.788Z,6.49
2019-05-16T05:11:01.605Z,6.57
2019-05-16T05:13:30.914Z,6.60
2019-05-16T05:16:01.348Z,6.58
2019-05-16T05:18:30.585Z,6.62
2019-05-16T05:21:00.846Z,6.95
2019-05-16T05:23:30.350Z,6.49
2019-05-16T05:26:00.399Z,6.49
2019-05-16T05:28:30.062Z,6.65
2019-05-16T05:30:59.770Z,6.59
2019-05-16T05:33:30.266Z,6.60
2019-05-16T05:36:01.113Z,6.75
2019-05-16T05:38:31.032Z,6.75
2019-05-16T05:41:00.401Z,6.93
2019-05-16T05:43:30.505Z,7.04
2019-05-16T05:46:00.748Z,7.46
2019-05-16T05:48:30.867Z,7.46
2019-05-16T05:51:01.744Z,7.42
2019-05-16T05:53:30.631Z,7.59
2019-05-16T05:56:00.497Z,7.70
2019-05-16T05:58:30.895Z,7.42
2019-05-16T06:01:00.753Z,7.59
2019-05-16T06:03:32.757Z,7.69
2019-05-16T06:06:01.155Z,7.59
2019-05-16T06:08:30.761Z,7.59
2019-05-16T06:11:00.732Z,7.78
2019-05-16T06:13:31.087Z,7.80
2019-05-16T06:16:00.460Z,7.89
2019-05-16T06:18:30.493Z,8.06
2019-05-16T06:21:00.601Z,8.11
2019-05-16T06:23:31.188Z,8.17
2019-05-16T06:26:00.631Z,8.29
2019-05-16T06:28:31.184Z,8.32
2019-05-16T06:31:01.789Z,8.48
2019-05-16T06:33:30.738Z,8.48
2019-05-16T06:36:00.256Z,8.62
2019-05-16T06:38:29.929Z,8.69
2019-05-16T06:41:00.308Z,8.81
2019-05-16T06:43:30.081Z,8.91
2019-05-16T06:46:00.656Z,9.01
2019-05-16T06:48:30.432Z,9.02
2019-05-16T06:51:02.867Z,8.98
2019-05-16T06:53:30.131Z,9.07
2019-05-16T06:56:00.178Z,9.42
2019-05-16T06:58:30.230Z,9.40
2019-05-16T07:01:03.237Z,9.34
2019-05-16T07:03:30.919Z,9.14
2019-05-16T07:06:00.526Z,9.50
2019-05-16T07:08:30.961Z,9.38
2019-05-16T07:11:00.159Z,9.61
2019-05-16T07:13:30.329Z,9.76
2019-05-16T07:16:00.572Z,9.25
2019-05-16T07:18:30.956Z,9.41
2019-05-16T07:21:00.320Z,9.36
2019-05-16T07:23:29.814Z,9.63
2019-05-16T07:26:00.852Z,9.15
2019-05-16T07:28:30.194Z,9.84
2019-05-16T07:31:02.904Z,10.03
2019-05-16T07:33:31.120Z,10.17
2019-05-16T07:36:00.563Z,10.38
2019-05-16T07:38:30.872Z,10.15
2019-05-16T07:41:00.062Z,10.85
2019-05-16T07:43:30.875Z,10.50
2019-05-16T07:46:00.430Z,10.75
2019-05-16T07:48:31.744Z,10.91
2019-05-16T07:51:00.661Z,10.57
2019-05-16T07:53:32.828Z,10.92
2019-05-16T07:56:00.369Z,10.99
2019-05-16T07:58:31.329Z,11.11
2019-05-16T08:01:04.545Z,11.32
2019-05-16T08:03:30.600Z,11.36
2019-05-16T08:06:01.813Z,11.73
2019-05-16T08:08:31.482Z,11.74
2019-05-16T08:11:01.656Z,11.83
2019-05-16T08:13:31.030Z,11.69
2019-05-16T08:16:01.358Z,11.69
2019-05-16T08:18:30.931Z,11.04
2019-05-16T08:21:01.092Z,11.06
2019-05-16T08:23:30.886Z,11.45
2019-05-16T08:26:01.130Z,11.63
2019-05-16T08:28:30.962Z,11.57
2019-05-16T08:31:01.051Z,11.82
2019-05-16T08:33:31.972Z,11.97
2019-05-16T08:36:04.800Z,11.97
2019-05-16T08:38:31.178Z,12.32
2019-05-16T08:43:31.807Z,12.45
2019-05-16T08:46:01.275Z,12.11
2019-05-16T08:48:31.852Z,11.89
2019-05-16T08:51:03.007Z,11.84
2019-05-16T08:53:32.715Z,12.03
2019-05-16T08:56:02.605Z,12.34
2019-05-16T08:58:33.164Z,12.53
2019-05-16T09:01:02.828Z,12.51
2019-05-16T09:03:32.697Z,12.80
2019-05-16T09:08:33.089Z,12.22
2019-05-16T09:10:30.923Z,12.54
2019-05-16T09:10:31.602Z,12.48
2019-05-16T09:11:24.896Z,12.11
2019-05-16T09:13:32.861Z,12.42
2019-05-16T09:16:01.747Z,12.34
2019-05-16T09:18:40.637Z,12.34
2019-05-16T09:21:01.272Z,12.48
2019-05-16T09:23:30.169Z,12.49
2019-05-16T09:25:59.052Z,12.36
2019-05-16T09:28:28.448Z,12.66
2019-05-16T09:30:58.042Z,12.80
2019-05-16T09:33:27.389Z,13.13
2019-05-16T09:35:57.599Z,13.09
2019-05-16T09:38:28.426Z,13.23
2019-05-16T09:40:57.341Z,13.27
2019-05-16T09:43:28.533Z,13.65
2019-05-16T09:46:03.373Z,13.68
2019-05-16T09:48:28.171Z,13.64
2019-05-16T09:50:57.844Z,13.71
2019-05-16T09:53:27.638Z,13.67
2019-05-16T09:55:57.591Z,13.80
2019-05-16T09:58:27.823Z,13.91
2019-05-16T10:00:57.672Z,14.12
2019-05-16T10:03:27.314Z,14.03
2019-05-16T10:05:57.273Z,13.86
2019-05-16T10:08:26.891Z,14.07
2019-05-16T10:10:57.058Z,13.86
2019-05-16T10:13:27.671Z,13.31
2019-05-16T10:15:56.950Z,13.67
2019-05-16T10:18:27.803Z,14.25
2019-05-16T10:20:58.997Z,14.16
2019-05-16T10:23:28.386Z,14.26
2019-05-16T10:25:57.527Z,14.43
2019-05-16T10:28:27.553Z,14.53
2019-05-16T10:30:57.035Z,14.49
2019-05-16T10:33:27.625Z,14.31
2019-05-16T10:35:58.008Z,14.53
2019-05-16T10:38:28.551Z,15.06
2019-05-16T10:40:57.734Z,14.92
2019-05-16T10:43:26.721Z,15.15
2019-05-16T10:45:55.624Z,15.07
2019-05-16T10:48:26.785Z,14.94
2019-05-16T10:50:57.439Z,15.18
2019-05-16T10:53:52.284Z,15.23
2019-05-16T10:55:57.196Z,15.13
2019-05-16T10:58:36.622Z,15.03
2019-05-16T11:01:14.934Z,15.56
2019-05-16T11:03:28.425Z,15.20
2019-05-16T11:06:05.496Z,15.19
2019-05-16T11:08:27.861Z,15.24
2019-05-16T11:10:57.209Z,15.61
2019-05-16T11:13:28.068Z,15.69
2019-05-16T11:15:56.852Z,15.60
2019-05-16T11:18:27.179Z,15.74
2019-05-16T11:20:58.026Z,15.84
2019-05-16T11:23:30.722Z,15.89
2019-05-16T11:25:58.602Z,16.13
2019-05-16T11:28:27.569Z,15.66
2019-05-16T11:31:02.541Z,16.27
2019-05-16T11:33:28.253Z,16.34
2019-05-16T11:35:57.505Z,15.81
2019-05-16T11:38:26.500Z,15.42
2019-05-16T11:40:56.823Z,15.51
2019-05-16T11:43:27.887Z,15.77
2019-05-16T11:45:57.415Z,15.50
2019-05-16T11:48:29.388Z,15.73
2019-05-16T11:50:57.108Z,15.46
2019-05-16T11:53:28.231Z,15.63
2019-05-16T11:56:01.288Z,15.91
2019-05-16T11:58:27.268Z,16.18
2019-05-16T12:00:57.555Z,16.18
2019-05-16T12:03:28.220Z,16.49
2019-05-16T12:05:57.962Z,16.27
2019-05-16T12:08:27.231Z,15.83
2019-05-16T12:10:56.114Z,16.14
2019-05-16T12:13:29.745Z,16.24
2019-05-16T12:15:56.546Z,16.52
2019-05-16T12:18:26.633Z,16.71
2019-05-16T12:20:56.607Z,16.38
2019-05-16T12:23:27.639Z,15.89
2019-05-16T12:25:56.677Z,16.22
2019-05-16T12:28:27.277Z,16.44
2019-05-16T12:30:56.399Z,16.63
2019-05-16T12:33:27.429Z,16.92
2019-05-16T12:35:57.538Z,16.75
2019-05-16T12:38:27.653Z,15.93
2019-05-16T12:40:56.781Z,16.28
2019-05-16T12:43:44.120Z,16.86
2019-05-16T12:45:57.014Z,16.78
2019-05-16T12:48:26.180Z,16.73
2019-05-16T12:50:58.683Z,16.22
2019-05-16T12:53:31.588Z,16.62
2019-05-16T12:55:56.777Z,16.79
2019-05-16T12:58:37.142Z,16.99
2019-05-16T13:00:57.913Z,17.47
2019-05-16T13:03:27.760Z,16.98
2019-05-16T13:05:57.147Z,16.64
2019-05-16T13:08:26.843Z,16.78
2019-05-16T13:10:57.823Z,16.96
2019-05-16T13:13:27.779Z,17.64
2019-05-16T13:15:56.876Z,17.85
2019-05-16T13:18:27.522Z,17.91
2019-05-16T13:20:57.369Z,16.97
2019-05-16T13:23:27.071Z,17.40
2019-05-16T13:25:57.547Z,16.96
2019-05-16T13:28:26.766Z,17.43
2019-05-16T13:30:57.661Z,17.81
2019-05-16T13:33:27.142Z,18.36
2019-05-16T13:35:57.760Z,17.64
2019-05-16T13:38:27.927Z,18.19
2019-05-16T13:40:57.219Z,17.79
2019-05-16T13:43:26.987Z,17.81
2019-05-16T13:45:57.569Z,18.24
2019-05-16T13:48:26.900Z,18.26
2019-05-16T13:51:08.362Z,17.74
2019-05-16T13:53:27.298Z,17.77
2019-05-16T13:55:56.341Z,18.02
2019-05-16T13:58:28.111Z,18.51
2019-05-16T14:00:57.309Z,18.35
2019-05-16T14:03:27.684Z,18.61
2019-05-16T14:05:58.275Z,18.22
2019-05-16T14:08:27.249Z,18.52
2019-05-16T14:11:01.517Z,18.67
2019-05-16T14:13:27.880Z,19.23
2019-05-16T14:15:56.991Z,19.53
2019-05-16T14:18:27.284Z,18.62
2019-05-16T14:20:57.301Z,17.94
2019-05-16T14:23:28.361Z,18.88
2019-05-16T14:25:57.804Z,19.07
2019-05-16T14:28:26.977Z,19.03
2019-05-16T14:30:57.280Z,18.76
2019-05-16T14:33:27.667Z,18.43
2019-05-16T14:35:56.622Z,18.33
2019-05-16T14:38:26.976Z,18.04
2019-05-16T14:40:57.386Z,18.50
2019-05-16T14:43:27.206Z,19.01
2019-05-16T14:45:57.221Z,18.71
2019-05-16T14:48:27.863Z,18.56
2019-05-16T14:50:57.545Z,19.33
2019-05-16T14:53:28.364Z,18.34
2019-05-16T14:55:57.790Z,18.60
2019-05-16T14:58:30.779Z,18.72
2019-05-16T15:00:57.730Z,19.69
2019-05-16T15:03:27.331Z,19.44
2019-05-16T15:05:58.878Z,19.71
2019-05-16T15:08:26.948Z,19.69
2019-05-16T15:10:57.434Z,19.76
2019-05-16T15:13:27.995Z,19.98
2019-05-16T15:15:57.206Z,20.34
2019-05-16T15:18:27.775Z,19.50
2019-05-16T15:20:57.534Z,19.06
2019-05-16T15:23:28.455Z,19.66
2019-05-16T15:25:57.180Z,19.81
2019-05-16T15:28:29.944Z,19.52
2019-05-16T15:30:57.483Z,19.85
2019-05-16T15:33:27.301Z,20.21
2019-05-16T15:35:57.712Z,19.70
2019-05-16T15:38:27.243Z,18.74
2019-05-16T15:40:57.391Z,19.63
2019-05-16T15:43:27.532Z,19.11
2019-05-16T15:46:00.746Z,20.15
2019-05-16T15:48:28.050Z,19.72
2019-05-16T15:50:59.907Z,20.20
2019-05-16T15:53:29.517Z,19.71
2019-05-16T15:55:59.436Z,20.21
2019-05-16T15:58:28.221Z,20.72
2019-05-16T16:00:57.902Z,21.41
2019-05-16T16:03:27.444Z,20.83
2019-05-16T16:05:56.535Z,20.47
2019-05-16T16:08:28.221Z,20.41
2019-05-16T16:10:55.952Z,20.20
2019-05-16T16:13:26.858Z,20.29
2019-05-16T16:15:57.595Z,20.75
2019-05-16T16:18:27.107Z,20.79
2019-05-16T16:20:57.027Z,20.66
2019-05-16T16:23:27.364Z,20.17
2019-05-16T16:25:59.802Z,19.98
2019-05-16T16:28:27.227Z,20.35
2019-05-16T16:30:56.932Z,20.46
2019-05-16T16:33:29.920Z,20.23
2019-05-16T16:35:57.295Z,20.15
2019-05-16T16:38:26.363Z,19.60
2019-05-16T16:40:57.379Z,20.18
2019-05-16T16:43:25.981Z,19.30
2019-05-16T16:46:06.187Z,19.35
2019-05-16T16:48:26.592Z,18.83
2019-05-16T16:50:57.377Z,18.98
2019-05-16T16:53:27.122Z,18.64
2019-05-16T16:55:56.838Z,18.89
2019-05-16T16:58:26.570Z,18.41
2019-05-16T17:00:55.697Z,18.18
2019-05-16T17:03:27.079Z,18.34
2019-05-16T17:05:57.089Z,18.07
2019-05-16T17:08:27.277Z,18.27
2019-05-16T17:10:57.459Z,17.89
2019-05-16T17:13:27.609Z,18.12
2019-05-16T17:15:56.997Z,17.89
2019-05-16T17:18:27.591Z,17.67
2019-05-16T17:20:57.129Z,17.71
2019-05-16T17:23:27.180Z,17.84
2019-05-16T17:25:56.701Z,17.82
2019-05-16T17:28:25.781Z,17.93
2019-05-16T17:30:56.577Z,17.62
2019-05-16T17:33:28.215Z,17.53
2019-05-16T17:35:55.936Z,17.98
2019-05-16T17:38:26.701Z,17.89
2019-05-16T17:40:56.992Z,17.85
2019-05-16T17:43:27.019Z,17.93
2019-05-16T17:45:57.515Z,18.20
2019-05-16T17:48:29.707Z,18.08
2019-05-16T17:50:57.185Z,17.96
2019-05-16T17:53:26.676Z,18.54
2019-05-16T17:55:57.345Z,17.98
2019-05-16T17:58:27.079Z,18.16
2019-05-16T18:01:00.020Z,18.49
2019-05-16T18:03:26.750Z,17.88
2019-05-16T18:05:56.718Z,18.13
2019-05-16T18:08:27.291Z,17.90
2019-05-16T18:10:56.625Z,17.94
2019-05-16T18:13:25.688Z,18.04
2019-05-16T18:15:56.788Z,17.24
2019-05-16T18:18:26.877Z,17.16
2019-05-16T18:21:01.726Z,17.78
2019-05-16T18:23:27.466Z,17.42
2019-05-16T18:25:57.550Z,16.88
2019-05-16T18:28:26.839Z,17.00
2019-05-16T18:30:56.731Z,16.54
2019-05-16T18:33:27.595Z,16.93
2019-05-16T18:35:58.012Z,17.64
2019-05-16T18:38:27.837Z,17.64
2019-05-16T18:40:56.816Z,16.81
2019-05-16T18:43:27.096Z,16.15
2019-05-16T18:45:56.631Z,15.94
2019-05-16T18:48:27.373Z,15.31
2019-05-16T18:50:57.679Z,15.70
2019-05-16T18:53:27.304Z,15.20
2019-05-16T18:55:57.049Z,15.23
2019-05-16T18:58:27.050Z,15.21
2019-05-16T19:00:56.024Z,14.98
2019-05-16T19:03:27.074Z,15.08
2019-05-16T19:05:57.159Z,14.87
2019-05-16T19:08:27.117Z,15.13
2019-05-16T19:10:56.875Z,14.75
2019-05-16T19:13:27.756Z,14.74
2019-05-16T19:15:57.255Z,14.86
2019-05-16T19:18:26.485Z,14.63
2019-05-16T19:20:57.114Z,14.53
2019-05-16T19:23:27.526Z,14.57
2019-05-16T19:25:56.898Z,14.63
2019-05-16T19:28:28.260Z,14.62
2019-05-16T19:30:57.319Z,14.62
2019-05-16T19:33:27.378Z,14.52
2019-05-16T19:35:56.667Z,14.47
2019-05-16T19:38:29.189Z,14.34
2019-05-16T19:40:57.442Z,14.51
2019-05-16T19:43:26.765Z,14.39
2019-05-16T19:45:57.235Z,14.45
2019-05-16T19:48:27.893Z,14.53
2019-05-16T19:50:57.114Z,14.50
2019-05-16T19:53:27.386Z,14.38
2019-05-16T19:55:56.687Z,14.27
2019-05-16T19:58:26.609Z,14.21
2019-05-16T20:00:57.282Z,14.23
2019-05-16T20:03:27.321Z,14.29
2019-05-16T20:05:57.041Z,14.14
2019-05-16T20:08:26.893Z,14.36
2019-05-16T20:10:57.538Z,14.23
2019-05-16T20:13:28.885Z,14.35
2019-05-16T20:15:57.813Z,14.27
2019-05-16T20:18:27.452Z,14.25
2019-05-16T20:20:56.916Z,14.17
2019-05-16T20:23:27.629Z,13.36
2019-05-16T20:25:57.149Z,13.47
2019-05-16T20:28:26.759Z,13.63
2019-05-16T20:30:57.099Z,13.87
2019-05-16T20:33:27.492Z,13.67
2019-05-16T20:35:57.588Z,13.23
2019-05-16T20:38:26.866Z,12.79
2019-05-16T20:40:59.648Z,13.48
2019-05-16T20:43:27.054Z,12.97
2019-05-16T20:45:56.788Z,12.67
2019-05-16T20:48:26.680Z,12.86
2019-05-16T20:50:56.644Z,12.83
2019-05-16T20:53:27.113Z,12.81
2019-05-16T20:55:57.277Z,12.18
2019-05-16T20:58:26.437Z,12.52
2019-05-16T21:00:59.620Z,12.36
2019-05-16T21:03:27.194Z,12.40
2019-05-16T21:05:58.284Z,12.40
2019-05-16T21:08:26.709Z,12.49
2019-05-16T21:10:57.077Z,12.57
2019-05-16T21:13:26.031Z,12.48
2019-05-16T21:15:54.922Z,11.38
2019-05-16T21:18:23.813Z,11.75
2019-05-16T21:20:52.706Z,11.48
2019-05-16T21:23:21.601Z,11.59
2019-05-16T21:25:50.491Z,11.44
2019-05-16T21:28:19.893Z,11.60
2019-05-16T21:30:48.889Z,11.55
2019-05-16T21:33:18.667Z,11.52
2019-05-16T21:35:47.689Z,11.60
2019-05-16T21:38:16.776Z,11.96
2019-05-16T21:40:45.588Z,12.01
2019-05-16T21:43:16.665Z,12.04
2019-05-16T21:45:47.262Z,12.28
2019-05-16T21:48:16.311Z,12.24
2019-05-16T21:50:46.398Z,12.14
2019-05-16T21:53:17.588Z,12.04
2019-05-16T21:55:47.204Z,12.07
2019-05-16T21:58:16.221Z,12.17
2019-05-16T22:00:48.288Z,12.23
2019-05-16T22:03:17.168Z,11.82
2019-05-16T22:05:46.534Z,12.06
2019-05-16T22:08:16.799Z,11.83
2019-05-16T22:10:46.737Z,12.10
2019-05-16T22:13:15.905Z,12.01
2019-05-16T22:15:46.359Z,12.09
2019-05-16T22:18:16.548Z,12.21
2019-05-16T22:20:48.779Z,12.13
2019-05-16T22:23:17.324Z,12.04
2019-05-16T22:25:48.723Z,12.00
2019-05-16T22:28:17.328Z,11.97
2019-05-16T22:30:46.425Z,12.00
2019-05-16T22:33:17.745Z,12.10
2019-05-16T22:35:46.444Z,11.95
2019-05-16T22:38:16.869Z,12.06
2019-05-16T22:40:45.927Z,12.07
2019-05-16T22:43:17.204Z,11.90
2019-05-16T22:45:46.822Z,11.96
2019-05-16T22:48:17.261Z,11.94
2019-05-16T22:50:46.375Z,11.91
2019-05-16T22:53:17.223Z,11.83
2019-05-16T22:55:47.589Z,11.87
2019-05-16T22:58:16.450Z,11.86
2019-05-16T23:00:45.422Z,11.74
2019-05-16T23:03:14.529Z,11.65
2019-05-16T23:05:43.406Z,11.61
2019-05-16T23:08:12.313Z,11.65
2019-05-16T23:10:41.293Z,11.42
2019-05-16T23:13:10.730Z,11.69
2019-05-16T23:15:39.699Z,11.93
2019-05-16T23:18:11.442Z,11.82
2019-05-16T23:20:43.111Z,11.38
2019-05-16T23:23:13.478Z,11.35
2019-05-16T23:25:46.094Z,11.40
2019-05-16T23:28:16.796Z,11.44
2019-05-16T23:30:47.079Z,11.47
2019-05-16T23:33:17.718Z,11.36
2019-05-16T23:35:46.967Z,11.64
2019-05-16T23:38:19.668Z,11.04
2019-05-16T23:40:46.911Z,11.27
2019-05-16T23:43:15.928Z,11.36
2019-05-16T23:45:46.814Z,11.33
2019-05-16T23:48:16.983Z,11.42
2019-05-16T23:50:47.465Z,11.47
2019-05-16T23:53:16.540Z,11.56
2019-05-16T23:55:47.129Z,11.59
2019-05-16T23:58:16.132Z,11.38
